sensor_id;sensor_type;location;lat;lon;timestamp;P1;durP1;ratioP1;P2;durP2;ratioP2
69542;SDS011;56762;49.494;11.768;2022-07-03T00:02:07;4.10;;;1.77;;
69542;SDS011;56762;49.494;11.768;2022-07-03T00:04:36;3.25;;;1.80;;
69542;SDS011;56762;49.494;11.768;2022-07-03T00:07:04;3.20;;;1.70;;
69542;SDS011;56762;49.494;11.768;2022-07-03T00:09:32;4.03;;;1.70;;
69542;SDS011;56762;49.494;11.768;2022-07-03T00:12:00;3.10;;;1.80;;
69542;SDS011;56762;49.494;11.768;2022-07-03T00:14:29;3.72;;;1.80;;
69542;SDS011;56762;49.494;11.768;2022-07-03T00:16:58;3.72;;;1.92;;
69542;SDS011;56762;49.494;11.768;2022-07-03T00:19:26;2.50;;;1.70;;
69542;SDS011;56762;49.494;11.768;2022-07-03T00:21:55;3.20;;;1.80;;
69542;SDS011;56762;49.494;11.768;2022-07-03T00:24:24;2.80;;;1.77;;
69542;SDS011;56762;49.494;11.768;2022-07-03T00:26:55;2.95;;;1.63;;
69542;SDS011;56762;49.494;11.768;2022-07-03T00:29:27;3.80;;;1.70;;
69542;SDS011;56762;49.494;11.768;2022-07-03T00:32:01;3.67;;;1.77;;
69542;SDS011;56762;49.494;11.768;2022-07-03T00:34:30;2.83;;;1.80;;
69542;SDS011;56762;49.494;11.768;2022-07-03T00:36:58;2.80;;;1.75;;
69542;SDS011;56762;49.494;11.768;2022-07-03T00:39:35;2.65;;;1.60;;
69542;SDS011;56762;49.494;11.768;2022-07-03T00:42:05;3.47;;;1.92;;
69542;SDS011;56762;49.494;11.768;2022-07-03T00:44:42;3.37;;;1.80;;
69542;SDS011;56762;49.494;11.768;2022-07-03T00:47:11;2.72;;;1.60;;
69542;SDS011;56762;49.494;11.768;2022-07-03T00:49:40;5.10;;;2.10;;
69542;SDS011;56762;49.494;11.768;2022-07-03T00:52:11;3.72;;;2.00;;
69542;SDS011;56762;49.494;11.768;2022-07-03T00:54:42;2.35;;;1.70;;
69542;SDS011;56762;49.494;11.768;2022-07-03T00:57:13;3.20;;;2.07;;
69542;SDS011;56762;49.494;11.768;2022-07-03T00:59:43;5.55;;;1.88;;
69542;SDS011;56762;49.494;11.768;2022-07-03T01:02:23;3.53;;;1.95;;
69542;SDS011;56762;49.494;11.768;2022-07-03T01:04:59;3.55;;;1.90;;
69542;SDS011;56762;49.494;11.768;2022-07-03T01:07:37;3.35;;;1.92;;
69542;SDS011;56762;49.494;11.768;2022-07-03T01:10:10;3.20;;;1.90;;
69542;SDS011;56762;49.494;11.768;2022-07-03T01:12:54;4.60;;;1.85;;
69542;SDS011;56762;49.494;11.768;2022-07-03T01:15:33;3.42;;;1.75;;
69542;SDS011;56762;49.494;11.768;2022-07-03T01:18:09;2.55;;;1.70;;
69542;SDS011;56762;49.494;11.768;2022-07-03T01:20:47;3.72;;;2.15;;
69542;SDS011;56762;49.494;11.768;2022-07-03T01:23:24;2.63;;;1.80;;
69542;SDS011;56762;49.494;11.768;2022-07-03T01:25:59;3.03;;;1.63;;
69542;SDS011;56762;49.494;11.768;2022-07-03T01:28:31;3.03;;;1.92;;
69542;SDS011;56762;49.494;11.768;2022-07-03T01:31:01;2.90;;;1.90;;
69542;SDS011;56762;49.494;11.768;2022-07-03T01:33:30;2.67;;;1.85;;
69542;SDS011;56762;49.494;11.768;2022-07-03T01:36:02;3.90;;;1.80;;
69542;SDS011;56762;49.494;11.768;2022-07-03T01:38:33;3.42;;;1.88;;
69542;SDS011;56762;49.494;11.768;2022-07-03T01:41:05;3.53;;;1.88;;
69542;SDS011;56762;49.494;11.768;2022-07-03T01:43:34;2.65;;;1.80;;
69542;SDS011;56762;49.494;11.768;2022-07-03T01:46:06;3.60;;;2.15;;
69542;SDS011;56762;49.494;11.768;2022-07-03T01:48:33;3.57;;;2.10;;
69542;SDS011;56762;49.494;11.768;2022-07-03T01:54:47;3.10;;;2.00;;
69542;SDS011;56762;49.494;11.768;2022-07-03T01:57:18;3.20;;;1.90;;
69542;SDS011;56762;49.494;11.768;2022-07-03T01:59:46;3.10;;;1.98;;
69542;SDS011;56762;49.494;11.768;2022-07-03T02:02:16;4.73;;;2.10;;
69542;SDS011;56762;49.494;11.768;2022-07-03T02:04:54;2.90;;;1.70;;
69542;SDS011;56762;49.494;11.768;2022-07-03T02:07:29;3.25;;;1.92;;
69542;SDS011;56762;49.494;11.768;2022-07-03T02:10:04;3.58;;;2.25;;
69542;SDS011;56762;49.494;11.768;2022-07-03T02:12:36;3.13;;;2.13;;
69542;SDS011;56762;49.494;11.768;2022-07-03T02:15:08;2.63;;;1.73;;
69542;SDS011;56762;49.494;11.768;2022-07-03T02:17:37;4.32;;;2.03;;
69542;SDS011;56762;49.494;11.768;2022-07-03T02:20:11;3.10;;;1.83;;
69542;SDS011;56762;49.494;11.768;2022-07-03T02:22:41;3.03;;;1.90;;
69542;SDS011;56762;49.494;11.768;2022-07-03T02:25:12;4.38;;;2.10;;
69542;SDS011;56762;49.494;11.768;2022-07-03T02:27:47;4.00;;;2.10;;
69542;SDS011;56762;49.494;11.768;2022-07-03T02:30:22;3.85;;;1.88;;
69542;SDS011;56762;49.494;11.768;2022-07-03T02:32:52;3.65;;;1.98;;
69542;SDS011;56762;49.494;11.768;2022-07-03T02:35:21;3.35;;;1.70;;
69542;SDS011;56762;49.494;11.768;2022-07-03T02:37:56;3.28;;;2.00;;
69542;SDS011;56762;49.494;11.768;2022-07-03T02:40:30;2.90;;;1.67;;
69542;SDS011;56762;49.494;11.768;2022-07-03T02:43:09;2.80;;;1.80;;
69542;SDS011;56762;49.494;11.768;2022-07-03T02:45:43;3.42;;;1.92;;
69542;SDS011;56762;49.494;11.768;2022-07-03T02:48:24;2.30;;;1.60;;
69542;SDS011;56762;49.494;11.768;2022-07-03T02:50:59;3.10;;;1.90;;
69542;SDS011;56762;49.494;11.768;2022-07-03T02:53:33;3.47;;;1.93;;
69542;SDS011;56762;49.494;11.768;2022-07-03T02:56:07;3.00;;;1.70;;
69542;SDS011;56762;49.494;11.768;2022-07-03T02:58:51;3.67;;;1.83;;
69542;SDS011;56762;49.494;11.768;2022-07-03T03:01:29;3.13;;;1.75;;
69542;SDS011;56762;49.494;11.768;2022-07-03T03:04:07;3.17;;;1.63;;
69542;SDS011;56762;49.494;11.768;2022-07-03T03:06:37;3.43;;;2.03;;
69542;SDS011;56762;49.494;11.768;2022-07-03T03:09:11;2.83;;;2.03;;
69542;SDS011;56762;49.494;11.768;2022-07-03T03:11:45;3.75;;;2.00;;
69542;SDS011;56762;49.494;11.768;2022-07-03T03:14:15;5.18;;;1.90;;
69542;SDS011;56762;49.494;11.768;2022-07-03T03:16:48;2.80;;;1.80;;
69542;SDS011;56762;49.494;11.768;2022-07-03T03:19:19;3.43;;;1.93;;
69542;SDS011;56762;49.494;11.768;2022-07-03T03:21:54;4.28;;;1.88;;
69542;SDS011;56762;49.494;11.768;2022-07-03T03:24:25;2.95;;;1.90;;
69542;SDS011;56762;49.494;11.768;2022-07-03T03:26:53;2.28;;;1.50;;
69542;SDS011;56762;49.494;11.768;2022-07-03T03:29:23;2.88;;;1.75;;
69542;SDS011;56762;49.494;11.768;2022-07-03T03:31:51;4.00;;;2.00;;
69542;SDS011;56762;49.494;11.768;2022-07-03T03:34:19;3.42;;;2.17;;
69542;SDS011;56762;49.494;11.768;2022-07-03T03:36:48;2.75;;;1.60;;
69542;SDS011;56762;49.494;11.768;2022-07-03T03:39:15;3.10;;;1.88;;
69542;SDS011;56762;49.494;11.768;2022-07-03T03:41:44;2.58;;;1.60;;
69542;SDS011;56762;49.494;11.768;2022-07-03T03:44:11;3.33;;;1.80;;
69542;SDS011;56762;49.494;11.768;2022-07-03T03:46:41;3.10;;;1.70;;
69542;SDS011;56762;49.494;11.768;2022-07-03T03:49:09;5.10;;;2.17;;
69542;SDS011;56762;49.494;11.768;2022-07-03T03:51:37;2.92;;;1.80;;
69542;SDS011;56762;49.494;11.768;2022-07-03T03:54:06;2.50;;;1.73;;
69542;SDS011;56762;49.494;11.768;2022-07-03T03:56:35;2.73;;;1.80;;
69542;SDS011;56762;49.494;11.768;2022-07-03T03:59:03;3.13;;;2.10;;
69542;SDS011;56762;49.494;11.768;2022-07-03T04:01:31;2.90;;;2.03;;
69542;SDS011;56762;49.494;11.768;2022-07-03T04:04:00;3.20;;;1.98;;
69542;SDS011;56762;49.494;11.768;2022-07-03T04:06:28;3.60;;;2.20;;
69542;SDS011;56762;49.494;11.768;2022-07-03T04:08:56;3.50;;;1.83;;
69542;SDS011;56762;49.494;11.768;2022-07-03T04:11:24;3.10;;;1.50;;
69542;SDS011;56762;49.494;11.768;2022-07-03T04:13:52;7.82;;;2.08;;
69542;SDS011;56762;49.494;11.768;2022-07-03T04:16:20;3.08;;;1.88;;
69542;SDS011;56762;49.494;11.768;2022-07-03T04:18:47;7.15;;;2.60;;
69542;SDS011;56762;49.494;11.768;2022-07-03T04:21:17;4.43;;;3.00;;
69542;SDS011;56762;49.494;11.768;2022-07-03T04:23:45;5.57;;;3.75;;
69542;SDS011;56762;49.494;11.768;2022-07-03T04:26:13;4.95;;;3.30;;
69542;SDS011;56762;49.494;11.768;2022-07-03T04:28:41;4.00;;;2.80;;
69542;SDS011;56762;49.494;11.768;2022-07-03T04:31:09;4.15;;;2.42;;
69542;SDS011;56762;49.494;11.768;2022-07-03T04:33:37;4.07;;;2.40;;
69542;SDS011;56762;49.494;11.768;2022-07-03T04:36:12;4.43;;;2.63;;
69542;SDS011;56762;49.494;11.768;2022-07-03T04:38:41;3.33;;;2.60;;
69542;SDS011;56762;49.494;11.768;2022-07-03T04:41:09;4.25;;;2.72;;
69542;SDS011;56762;49.494;11.768;2022-07-03T04:43:37;5.20;;;3.30;;
69542;SDS011;56762;49.494;11.768;2022-07-03T04:46:06;4.60;;;3.00;;
69542;SDS011;56762;49.494;11.768;2022-07-03T04:48:33;4.10;;;2.78;;
69542;SDS011;56762;49.494;11.768;2022-07-03T04:51:01;5.68;;;3.20;;
69542;SDS011;56762;49.494;11.768;2022-07-03T04:53:29;4.22;;;2.75;;
69542;SDS011;56762;49.494;11.768;2022-07-03T04:55:59;4.63;;;3.17;;
69542;SDS011;56762;49.494;11.768;2022-07-03T04:58:26;6.57;;;3.47;;
69542;SDS011;56762;49.494;11.768;2022-07-03T05:00:54;5.70;;;3.50;;
69542;SDS011;56762;49.494;11.768;2022-07-03T05:03:22;7.03;;;4.38;;
69542;SDS011;56762;49.494;11.768;2022-07-03T05:05:50;9.77;;;5.20;;
69542;SDS011;56762;49.494;11.768;2022-07-03T05:08:19;13.45;;;8.43;;
69542;SDS011;56762;49.494;11.768;2022-07-03T05:10:47;12.87;;;7.10;;
69542;SDS011;56762;49.494;11.768;2022-07-03T05:13:16;11.93;;;5.15;;
69542;SDS011;56762;49.494;11.768;2022-07-03T05:15:44;12.02;;;6.63;;
69542;SDS011;56762;49.494;11.768;2022-07-03T05:18:12;9.20;;;5.53;;
69542;SDS011;56762;49.494;11.768;2022-07-03T05:20:46;11.10;;;7.10;;
69542;SDS011;56762;49.494;11.768;2022-07-03T05:23:15;18.13;;;10.33;;
69542;SDS011;56762;49.494;11.768;2022-07-03T05:25:43;18.88;;;10.80;;
69542;SDS011;56762;49.494;11.768;2022-07-03T05:28:10;17.92;;;10.15;;
69542;SDS011;56762;49.494;11.768;2022-07-03T05:30:39;17.60;;;10.32;;
69542;SDS011;56762;49.494;11.768;2022-07-03T05:33:07;18.10;;;11.27;;
69542;SDS011;56762;49.494;11.768;2022-07-03T05:35:36;45.90;;;27.33;;
69542;SDS011;56762;49.494;11.768;2022-07-03T05:38:03;36.15;;;21.88;;
69542;SDS011;56762;49.494;11.768;2022-07-03T05:40:31;22.58;;;14.80;;
69542;SDS011;56762;49.494;11.768;2022-07-03T05:42:58;17.08;;;12.85;;
69542;SDS011;56762;49.494;11.768;2022-07-03T05:45:26;17.15;;;11.23;;
69542;SDS011;56762;49.494;11.768;2022-07-03T05:47:55;10.60;;;7.50;;
69542;SDS011;56762;49.494;11.768;2022-07-03T05:50:22;11.30;;;7.35;;
69542;SDS011;56762;49.494;11.768;2022-07-03T05:52:50;8.43;;;6.72;;
69542;SDS011;56762;49.494;11.768;2022-07-03T05:55:18;6.03;;;4.05;;
69542;SDS011;56762;49.494;11.768;2022-07-03T05:57:46;4.40;;;2.90;;
69542;SDS011;56762;49.494;11.768;2022-07-03T06:00:14;3.27;;;2.50;;
69542;SDS011;56762;49.494;11.768;2022-07-03T06:02:42;5.65;;;2.65;;
69542;SDS011;56762;49.494;11.768;2022-07-03T06:05:11;4.95;;;2.80;;
69542;SDS011;56762;49.494;11.768;2022-07-03T06:07:39;3.55;;;2.38;;
69542;SDS011;56762;49.494;11.768;2022-07-03T06:10:07;3.63;;;2.22;;
69542;SDS011;56762;49.494;11.768;2022-07-03T06:12:35;4.17;;;2.17;;
69542;SDS011;56762;49.494;11.768;2022-07-03T06:15:04;4.45;;;2.85;;
69542;SDS011;56762;49.494;11.768;2022-07-03T06:17:33;4.07;;;2.25;;
69542;SDS011;56762;49.494;11.768;2022-07-03T06:20:02;3.17;;;2.45;;
69542;SDS011;56762;49.494;11.768;2022-07-03T06:22:32;3.65;;;2.22;;
69542;SDS011;56762;49.494;11.768;2022-07-03T06:25:00;4.10;;;2.53;;
69542;SDS011;56762;49.494;11.768;2022-07-03T06:27:28;3.95;;;2.15;;
69542;SDS011;56762;49.494;11.768;2022-07-03T06:29:56;4.05;;;2.33;;
69542;SDS011;56762;49.494;11.768;2022-07-03T06:32:24;4.93;;;2.22;;
69542;SDS011;56762;49.494;11.768;2022-07-03T06:34:52;3.10;;;2.17;;
69542;SDS011;56762;49.494;11.768;2022-07-03T06:37:21;3.37;;;2.20;;
69542;SDS011;56762;49.494;11.768;2022-07-03T06:39:50;2.63;;;1.90;;
69542;SDS011;56762;49.494;11.768;2022-07-03T06:42:18;2.47;;;1.90;;
69542;SDS011;56762;49.494;11.768;2022-07-03T06:44:45;5.22;;;2.60;;
69542;SDS011;56762;49.494;11.768;2022-07-03T06:47:17;3.53;;;2.00;;
69542;SDS011;56762;49.494;11.768;2022-07-03T06:49:45;3.53;;;2.20;;
69542;SDS011;56762;49.494;11.768;2022-07-03T06:52:12;2.75;;;1.90;;
69542;SDS011;56762;49.494;11.768;2022-07-03T06:54:40;3.13;;;2.40;;
69542;SDS011;56762;49.494;11.768;2022-07-03T06:57:11;3.08;;;2.30;;
69542;SDS011;56762;49.494;11.768;2022-07-03T06:59:39;3.38;;;2.10;;
69542;SDS011;56762;49.494;11.768;2022-07-03T07:02:08;2.97;;;1.80;;
69542;SDS011;56762;49.494;11.768;2022-07-03T07:04:36;2.90;;;2.08;;
69542;SDS011;56762;49.494;11.768;2022-07-03T07:07:04;2.55;;;1.70;;
69542;SDS011;56762;49.494;11.768;2022-07-03T07:09:31;3.55;;;1.90;;
69542;SDS011;56762;49.494;11.768;2022-07-03T07:11:59;2.13;;;1.77;;
69542;SDS011;56762;49.494;11.768;2022-07-03T07:14:29;3.87;;;2.27;;
69542;SDS011;56762;49.494;11.768;2022-07-03T07:16:56;2.42;;;1.83;;
69542;SDS011;56762;49.494;11.768;2022-07-03T07:19:24;3.28;;;2.30;;
69542;SDS011;56762;49.494;11.768;2022-07-03T07:21:52;2.65;;;1.83;;
69542;SDS011;56762;49.494;11.768;2022-07-03T07:24:20;3.33;;;2.17;;
69542;SDS011;56762;49.494;11.768;2022-07-03T07:26:48;2.50;;;1.73;;
69542;SDS011;56762;49.494;11.768;2022-07-03T07:29:16;3.28;;;2.00;;
69542;SDS011;56762;49.494;11.768;2022-07-03T07:31:45;3.05;;;2.10;;
69542;SDS011;56762;49.494;11.768;2022-07-03T07:34:13;3.67;;;2.00;;
69542;SDS011;56762;49.494;11.768;2022-07-03T07:36:41;2.70;;;2.00;;
69542;SDS011;56762;49.494;11.768;2022-07-03T07:39:09;3.30;;;1.70;;
69542;SDS011;56762;49.494;11.768;2022-07-03T07:41:37;2.83;;;1.88;;
69542;SDS011;56762;49.494;11.768;2022-07-03T07:44:05;7.43;;;2.25;;
69542;SDS011;56762;49.494;11.768;2022-07-03T07:46:33;2.35;;;1.67;;
69542;SDS011;56762;49.494;11.768;2022-07-03T07:49:02;3.22;;;1.83;;
69542;SDS011;56762;49.494;11.768;2022-07-03T07:51:30;2.73;;;1.70;;
69542;SDS011;56762;49.494;11.768;2022-07-03T07:53:58;2.10;;;1.50;;
69542;SDS011;56762;49.494;11.768;2022-07-03T07:56:26;2.25;;;1.63;;
69542;SDS011;56762;49.494;11.768;2022-07-03T07:58:54;2.35;;;1.80;;
69542;SDS011;56762;49.494;11.768;2022-07-03T08:01:22;2.40;;;1.90;;
69542;SDS011;56762;49.494;11.768;2022-07-03T08:04:09;3.73;;;1.43;;
69542;SDS011;56762;49.494;11.768;2022-07-03T08:06:54;1.70;;;1.23;;
69542;SDS011;56762;49.494;11.768;2022-07-03T08:09:22;3.70;;;1.50;;
69542;SDS011;56762;49.494;11.768;2022-07-03T08:11:50;2.33;;;1.45;;
69542;SDS011;56762;49.494;11.768;2022-07-03T08:14:18;2.35;;;1.50;;
69542;SDS011;56762;49.494;11.768;2022-07-03T08:16:46;2.50;;;1.50;;
69542;SDS011;56762;49.494;11.768;2022-07-03T08:19:15;2.80;;;1.30;;
69542;SDS011;56762;49.494;11.768;2022-07-03T08:21:43;1.60;;;1.17;;
69542;SDS011;56762;49.494;11.768;2022-07-03T08:24:11;2.30;;;1.50;;
69542;SDS011;56762;49.494;11.768;2022-07-03T08:26:39;2.63;;;1.33;;
69542;SDS011;56762;49.494;11.768;2022-07-03T08:29:07;2.10;;;1.33;;
69542;SDS011;56762;49.494;11.768;2022-07-03T08:31:35;1.92;;;1.20;;
69542;SDS011;56762;49.494;11.768;2022-07-03T08:34:03;2.25;;;1.73;;
69542;SDS011;56762;49.494;11.768;2022-07-03T08:36:32;2.92;;;1.60;;
69542;SDS011;56762;49.494;11.768;2022-07-03T08:39:01;2.03;;;1.55;;
69542;SDS011;56762;49.494;11.768;2022-07-03T08:41:28;1.97;;;1.50;;
69542;SDS011;56762;49.494;11.768;2022-07-03T08:43:59;1.92;;;1.33;;
69542;SDS011;56762;49.494;11.768;2022-07-03T08:46:27;2.08;;;1.40;;
69542;SDS011;56762;49.494;11.768;2022-07-03T08:48:58;4.70;;;1.40;;
69542;SDS011;56762;49.494;11.768;2022-07-03T08:51:28;2.75;;;1.65;;
69542;SDS011;56762;49.494;11.768;2022-07-03T08:53:59;3.93;;;1.60;;
69542;SDS011;56762;49.494;11.768;2022-07-03T08:56:28;2.50;;;1.20;;
69542;SDS011;56762;49.494;11.768;2022-07-03T08:58:57;1.98;;;1.13;;
69542;SDS011;56762;49.494;11.768;2022-07-03T09:01:25;1.70;;;0.90;;
69542;SDS011;56762;49.494;11.768;2022-07-03T09:03:53;2.53;;;0.90;;
69542;SDS011;56762;49.494;11.768;2022-07-03T09:06:24;0.93;;;0.70;;
69542;SDS011;56762;49.494;11.768;2022-07-03T09:08:51;2.60;;;0.95;;
69542;SDS011;56762;49.494;11.768;2022-07-03T09:11:23;1.33;;;0.90;;
69542;SDS011;56762;49.494;11.768;2022-07-03T09:13:51;1.90;;;0.90;;
69542;SDS011;56762;49.494;11.768;2022-07-03T09:16:20;1.20;;;0.70;;
69542;SDS011;56762;49.494;11.768;2022-07-03T09:18:48;3.23;;;1.17;;
69542;SDS011;56762;49.494;11.768;2022-07-03T09:21:16;3.40;;;0.90;;
69542;SDS011;56762;49.494;11.768;2022-07-03T09:23:44;3.30;;;1.00;;
69542;SDS011;56762;49.494;11.768;2022-07-03T09:26:14;2.55;;;0.80;;
69542;SDS011;56762;49.494;11.768;2022-07-03T09:28:45;1.23;;;0.93;;
69542;SDS011;56762;49.494;11.768;2022-07-03T09:31:17;1.13;;;0.70;;
69542;SDS011;56762;49.494;11.768;2022-07-03T09:33:48;1.20;;;0.80;;
69542;SDS011;56762;49.494;11.768;2022-07-03T09:36:18;1.90;;;1.10;;
69542;SDS011;56762;49.494;11.768;2022-07-03T09:38:48;2.22;;;0.90;;
69542;SDS011;56762;49.494;11.768;2022-07-03T09:41:15;5.95;;;2.45;;
69542;SDS011;56762;49.494;11.768;2022-07-03T09:43:43;4.73;;;1.70;;
69542;SDS011;56762;49.494;11.768;2022-07-03T09:46:13;4.38;;;1.48;;
69542;SDS011;56762;49.494;11.768;2022-07-03T09:48:41;1.52;;;0.90;;
69542;SDS011;56762;49.494;11.768;2022-07-03T09:51:14;2.45;;;0.93;;
69542;SDS011;56762;49.494;11.768;2022-07-03T09:53:47;1.38;;;0.80;;
69542;SDS011;56762;49.494;11.768;2022-07-03T09:56:23;3.37;;;0.97;;
69542;SDS011;56762;49.494;11.768;2022-07-03T09:59:04;1.88;;;1.02;;
69542;SDS011;56762;49.494;11.768;2022-07-03T10:01:34;1.70;;;1.20;;
69542;SDS011;56762;49.494;11.768;2022-07-03T10:04:14;1.50;;;1.00;;
69542;SDS011;56762;49.494;11.768;2022-07-03T10:06:47;2.33;;;0.98;;
69542;SDS011;56762;49.494;11.768;2022-07-03T10:09:20;1.50;;;0.77;;
69542;SDS011;56762;49.494;11.768;2022-07-03T10:11:49;1.95;;;0.90;;
69542;SDS011;56762;49.494;11.768;2022-07-03T10:14:19;2.60;;;1.08;;
69542;SDS011;56762;49.494;11.768;2022-07-03T10:16:48;1.77;;;1.00;;
69542;SDS011;56762;49.494;11.768;2022-07-03T10:19:18;2.03;;;0.80;;
69542;SDS011;56762;49.494;11.768;2022-07-03T10:21:49;1.53;;;0.77;;
69542;SDS011;56762;49.494;11.768;2022-07-03T10:24:20;2.15;;;0.82;;
69542;SDS011;56762;49.494;11.768;2022-07-03T10:26:49;1.40;;;0.90;;
69542;SDS011;56762;49.494;11.768;2022-07-03T10:29:19;1.40;;;0.93;;
69542;SDS011;56762;49.494;11.768;2022-07-03T10:31:55;2.65;;;1.10;;
69542;SDS011;56762;49.494;11.768;2022-07-03T10:34:25;1.90;;;0.90;;
69542;SDS011;56762;49.494;11.768;2022-07-03T10:36:55;2.97;;;1.50;;
69542;SDS011;56762;49.494;11.768;2022-07-03T10:42:16;2.33;;;0.85;;
69542;SDS011;56762;49.494;11.768;2022-07-03T10:45:09;1.30;;;0.75;;
69542;SDS011;56762;49.494;11.768;2022-07-03T10:47:39;1.10;;;0.60;;
69542;SDS011;56762;49.494;11.768;2022-07-03T10:50:11;1.60;;;0.65;;
69542;SDS011;56762;49.494;11.768;2022-07-03T10:52:41;1.20;;;0.80;;
69542;SDS011;56762;49.494;11.768;2022-07-03T10:55:09;1.83;;;0.75;;
69542;SDS011;56762;49.494;11.768;2022-07-03T10:57:38;1.80;;;0.75;;
69542;SDS011;56762;49.494;11.768;2022-07-03T11:00:10;2.17;;;0.90;;
69542;SDS011;56762;49.494;11.768;2022-07-03T11:02:41;1.67;;;0.90;;
69542;SDS011;56762;49.494;11.768;2022-07-03T11:05:14;3.45;;;2.90;;
69542;SDS011;56762;49.494;11.768;2022-07-03T11:08:10;1.50;;;1.02;;
69542;SDS011;56762;49.494;11.768;2022-07-03T11:10:42;1.98;;;1.08;;
69542;SDS011;56762;49.494;11.768;2022-07-03T11:13:14;1.33;;;0.67;;
69542;SDS011;56762;49.494;11.768;2022-07-03T11:15:45;0.93;;;0.50;;
69542;SDS011;56762;49.494;11.768;2022-07-03T11:18:18;1.55;;;0.93;;
69542;SDS011;56762;49.494;11.768;2022-07-03T11:24:05;1.50;;;0.60;;
69542;SDS011;56762;49.494;11.768;2022-07-03T11:27:16;1.00;;;0.60;;
69542;SDS011;56762;49.494;11.768;2022-07-03T11:29:53;1.23;;;0.77;;
69542;SDS011;56762;49.494;11.768;2022-07-03T11:32:43;1.08;;;0.77;;
69542;SDS011;56762;49.494;11.768;2022-07-03T11:38:17;1.83;;;0.88;;
69542;SDS011;56762;49.494;11.768;2022-07-03T11:40:49;2.43;;;0.60;;
69542;SDS011;56762;49.494;11.768;2022-07-03T11:43:18;1.23;;;0.70;;
69542;SDS011;56762;49.494;11.768;2022-07-03T11:45:46;2.22;;;0.80;;
69542;SDS011;56762;49.494;11.768;2022-07-03T11:48:17;2.88;;;0.75;;
69542;SDS011;56762;49.494;11.768;2022-07-03T11:50:46;2.10;;;0.75;;
69542;SDS011;56762;49.494;11.768;2022-07-03T11:53:16;1.07;;;0.57;;
69542;SDS011;56762;49.494;11.768;2022-07-03T11:55:51;1.00;;;0.50;;
69542;SDS011;56762;49.494;11.768;2022-07-03T11:58:21;1.65;;;0.85;;
69542;SDS011;56762;49.494;11.768;2022-07-03T12:00:49;2.15;;;0.50;;
69542;SDS011;56762;49.494;11.768;2022-07-03T12:03:24;1.00;;;0.40;;
69542;SDS011;56762;49.494;11.768;2022-07-03T12:05:54;1.50;;;0.70;;
69542;SDS011;56762;49.494;11.768;2022-07-03T12:08:24;1.92;;;0.60;;
69542;SDS011;56762;49.494;11.768;2022-07-03T12:10:57;1.85;;;0.60;;
69542;SDS011;56762;49.494;11.768;2022-07-03T12:13:27;1.08;;;0.70;;
69542;SDS011;56762;49.494;11.768;2022-07-03T12:16:03;1.88;;;0.70;;
69542;SDS011;56762;49.494;11.768;2022-07-03T12:18:46;0.80;;;0.40;;
69542;SDS011;56762;49.494;11.768;2022-07-03T12:21:17;1.60;;;0.75;;
69542;SDS011;56762;49.494;11.768;2022-07-03T12:23:46;3.92;;;1.60;;
69542;SDS011;56762;49.494;11.768;2022-07-03T12:26:26;1.98;;;0.68;;
69542;SDS011;56762;49.494;11.768;2022-07-03T12:28:57;0.82;;;0.50;;
69542;SDS011;56762;49.494;11.768;2022-07-03T12:31:26;0.60;;;0.30;;
69542;SDS011;56762;49.494;11.768;2022-07-03T12:33:57;2.17;;;0.50;;
69542;SDS011;56762;49.494;11.768;2022-07-03T12:36:25;0.90;;;0.52;;
69542;SDS011;56762;49.494;11.768;2022-07-03T12:38:54;1.05;;;0.75;;
69542;SDS011;56762;49.494;11.768;2022-07-03T12:41:23;1.30;;;0.52;;
69542;SDS011;56762;49.494;11.768;2022-07-03T12:43:52;0.83;;;0.43;;
69542;SDS011;56762;49.494;11.768;2022-07-03T12:46:21;0.88;;;0.60;;
69542;SDS011;56762;49.494;11.768;2022-07-03T12:48:50;1.90;;;0.50;;
69542;SDS011;56762;49.494;11.768;2022-07-03T12:51:40;0.80;;;0.30;;
69542;SDS011;56762;49.494;11.768;2022-07-03T12:54:10;0.80;;;0.60;;
69542;SDS011;56762;49.494;11.768;2022-07-03T12:56:39;0.67;;;0.47;;
69542;SDS011;56762;49.494;11.768;2022-07-03T12:59:07;0.82;;;0.35;;
69542;SDS011;56762;49.494;11.768;2022-07-03T13:02:00;0.80;;;0.47;;
69542;SDS011;56762;49.494;11.768;2022-07-03T13:04:30;1.33;;;0.40;;
69542;SDS011;56762;49.494;11.768;2022-07-03T13:07:04;2.58;;;0.45;;
69542;SDS011;56762;49.494;11.768;2022-07-03T13:09:33;0.60;;;0.33;;
69542;SDS011;56762;49.494;11.768;2022-07-03T13:12:02;0.60;;;0.38;;
69542;SDS011;56762;49.494;11.768;2022-07-03T13:14:31;0.65;;;0.32;;
69542;SDS011;56762;49.494;11.768;2022-07-03T13:16:59;1.60;;;0.50;;
69542;SDS011;56762;49.494;11.768;2022-07-03T13:19:27;1.00;;;0.30;;
69542;SDS011;56762;49.494;11.768;2022-07-03T13:21:56;0.70;;;0.33;;
69542;SDS011;56762;49.494;11.768;2022-07-03T13:24:26;1.17;;;0.32;;
69542;SDS011;56762;49.494;11.768;2022-07-03T13:26:53;0.95;;;0.60;;
69542;SDS011;56762;49.494;11.768;2022-07-03T13:29:21;5.63;;;3.35;;
69542;SDS011;56762;49.494;11.768;2022-07-03T13:31:51;1.60;;;1.00;;
69542;SDS011;56762;49.494;11.768;2022-07-03T13:34:19;1.60;;;1.07;;
69542;SDS011;56762;49.494;11.768;2022-07-03T13:36:47;5.43;;;3.97;;
69542;SDS011;56762;49.494;11.768;2022-07-03T13:39:16;4.55;;;2.42;;
69542;SDS011;56762;49.494;11.768;2022-07-03T13:41:45;1.30;;;0.80;;
69542;SDS011;56762;49.494;11.768;2022-07-03T13:44:13;0.60;;;0.50;;
69542;SDS011;56762;49.494;11.768;2022-07-03T13:46:41;0.67;;;0.30;;
69542;SDS011;56762;49.494;11.768;2022-07-03T13:49:15;0.90;;;0.40;;
69542;SDS011;56762;49.494;11.768;2022-07-03T13:51:44;1.30;;;0.38;;
69542;SDS011;56762;49.494;11.768;2022-07-03T13:54:12;0.80;;;0.50;;
69542;SDS011;56762;49.494;11.768;2022-07-03T13:56:39;0.82;;;0.50;;
69542;SDS011;56762;49.494;11.768;2022-07-03T13:59:09;0.80;;;0.50;;
69542;SDS011;56762;49.494;11.768;2022-07-03T14:01:38;0.70;;;0.40;;
69542;SDS011;56762;49.494;11.768;2022-07-03T14:04:06;1.40;;;0.50;;
69542;SDS011;56762;49.494;11.768;2022-07-03T14:06:34;0.50;;;0.30;;
69542;SDS011;56762;49.494;11.768;2022-07-03T14:09:02;0.90;;;0.40;;
69542;SDS011;56762;49.494;11.768;2022-07-03T14:11:33;2.40;;;0.60;;
69542;SDS011;56762;49.494;11.768;2022-07-03T14:14:01;0.60;;;0.40;;
69542;SDS011;56762;49.494;11.768;2022-07-03T14:16:30;0.70;;;0.40;;
69542;SDS011;56762;49.494;11.768;2022-07-03T14:18:58;0.82;;;0.38;;
69542;SDS011;56762;49.494;11.768;2022-07-03T14:21:30;0.60;;;0.40;;
69542;SDS011;56762;49.494;11.768;2022-07-03T14:23:57;1.23;;;0.30;;
69542;SDS011;56762;49.494;11.768;2022-07-03T14:26:25;2.17;;;1.40;;
69542;SDS011;56762;49.494;11.768;2022-07-03T14:29:11;1.90;;;0.63;;
69542;SDS011;56762;49.494;11.768;2022-07-03T14:31:58;1.77;;;0.50;;
69542;SDS011;56762;49.494;11.768;2022-07-03T14:34:43;1.25;;;0.70;;
69542;SDS011;56762;49.494;11.768;2022-07-03T14:37:16;1.20;;;0.63;;
69542;SDS011;56762;49.494;11.768;2022-07-03T14:39:44;3.28;;;1.73;;
69542;SDS011;56762;49.494;11.768;2022-07-03T14:42:12;1.00;;;0.70;;
69542;SDS011;56762;49.494;11.768;2022-07-03T14:44:40;0.70;;;0.50;;
69542;SDS011;56762;49.494;11.768;2022-07-03T14:47:10;1.13;;;0.60;;
69542;SDS011;56762;49.494;11.768;2022-07-03T14:49:38;0.73;;;0.40;;
69542;SDS011;56762;49.494;11.768;2022-07-03T14:52:07;0.90;;;0.50;;
69542;SDS011;56762;49.494;11.768;2022-07-03T14:54:35;1.02;;;0.50;;
69542;SDS011;56762;49.494;11.768;2022-07-03T14:57:06;0.45;;;0.30;;
69542;SDS011;56762;49.494;11.768;2022-07-03T14:59:43;2.38;;;0.68;;
69542;SDS011;56762;49.494;11.768;2022-07-03T15:02:19;0.80;;;0.50;;
69542;SDS011;56762;49.494;11.768;2022-07-03T15:04:53;0.95;;;0.40;;
69542;SDS011;56762;49.494;11.768;2022-07-03T15:07:30;1.10;;;0.65;;